sensor_id;sensor_type;location;lat;lon;timestamp;P1;durP1;ratioP1;P2;durP2;ratioP2
10418;SDS011;5256;48.728;9.140;2023-06-22T00:00:49;0.20;;;0.20;;
10418;SDS011;5256;48.728;9.140;2023-06-22T00:03:15;0.30;;;0.30;;
10418;SDS011;5256;48.728;9.140;2023-06-22T00:05:45;0.20;;;0.20;;
10418;SDS011;5256;48.728;9.140;2023-06-22T00:08:12;0.20;;;0.20;;
10418;SDS011;5256;48.728;9.140;2023-06-22T00:10:37;0.30;;;0.30;;
10418;SDS011;5256;48.728;9.140;2023-06-22T00:13:03;0.20;;;0.20;;
10418;SDS011;5256;48.728;9.140;2023-06-22T00:15:30;0.20;;;0.20;;
10418;SDS011;5256;48.728;9.140;2023-06-22T00:17:55;0.30;;;0.30;;
10418;SDS011;5256;48.728;9.140;2023-06-22T00:20:22;0.27;;;0.27;;
10418;SDS011;5256;48.728;9.140;2023-06-22T00:22:52;0.20;;;0.20;;
10418;SDS011;5256;48.728;9.140;2023-06-22T00:25:18;0.30;;;0.30;;
10418;SDS011;5256;48.728;9.140;2023-06-22T00:27:44;0.20;;;0.20;;
10418;SDS011;5256;48.728;9.140;2023-06-22T00:30:10;0.20;;;0.20;;
10418;SDS011;5256;48.728;9.140;2023-06-22T00:32:36;0.20;;;0.20;;
10418;SDS011;5256;48.728;9.140;2023-06-22T00:35:01;0.27;;;0.27;;
10418;SDS011;5256;48.728;9.140;2023-06-22T00:37:27;0.20;;;0.20;;
10418;SDS011;5256;48.728;9.140;2023-06-22T00:39:54;0.20;;;0.20;;
10418;SDS011;5256;48.728;9.140;2023-06-22T00:42:20;0.30;;;0.30;;
10418;SDS011;5256;48.728;9.140;2023-06-22T00:44:46;0.20;;;0.20;;
10418;SDS011;5256;48.728;9.140;2023-06-22T00:47:12;0.30;;;0.30;;
10418;SDS011;5256;48.728;9.140;2023-06-22T00:49:40;0.20;;;0.20;;
10418;SDS011;5256;48.728;9.140;2023-06-22T00:52:06;0.20;;;0.20;;
10418;SDS011;5256;48.728;9.140;2023-06-22T00:54:40;0.23;;;0.23;;
10418;SDS011;5256;48.728;9.140;2023-06-22T00:57:13;0.20;;;0.20;;
10418;SDS011;5256;48.728;9.140;2023-06-22T00:59:41;0.20;;;0.20;;
10418;SDS011;5256;48.728;9.140;2023-06-22T01:02:10;0.10;;;0.10;;
10418;SDS011;5256;48.728;9.140;2023-06-22T01:04:37;0.20;;;0.20;;
10418;SDS011;5256;48.728;9.140;2023-06-22T01:07:38;0.30;;;0.30;;
10418;SDS011;5256;48.728;9.140;2023-06-22T01:12:38;0.20;;;0.20;;
10418;SDS011;5256;48.728;9.140;2023-06-22T01:15:18;0.20;;;0.20;;
10418;SDS011;5256;48.728;9.140;2023-06-22T01:18:06;0.20;;;0.20;;
10418;SDS011;5256;48.728;9.140;2023-06-22T01:20:34;0.20;;;0.20;;
10418;SDS011;5256;48.728;9.140;2023-06-22T01:23:07;0.17;;;0.17;;
10418;SDS011;5256;48.728;9.140;2023-06-22T01:25:47;0.20;;;0.20;;
10418;SDS011;5256;48.728;9.140;2023-06-22T01:31:23;0.20;;;0.20;;
10418;SDS011;5256;48.728;9.140;2023-06-22T01:33:51;0.30;;;0.30;;
10418;SDS011;5256;48.728;9.140;2023-06-22T01:36:21;0.20;;;0.20;;
10418;SDS011;5256;48.728;9.140;2023-06-22T01:38:48;0.20;;;0.20;;
10418;SDS011;5256;48.728;9.140;2023-06-22T01:41:14;0.20;;;0.20;;
10418;SDS011;5256;48.728;9.140;2023-06-22T01:43:42;0.20;;;0.20;;
10418;SDS011;5256;48.728;9.140;2023-06-22T01:46:08;0.30;;;0.30;;
10418;SDS011;5256;48.728;9.140;2023-06-22T01:48:34;0.20;;;0.20;;
10418;SDS011;5256;48.728;9.140;2023-06-22T01:51:00;0.20;;;0.20;;
10418;SDS011;5256;48.728;9.140;2023-06-22T01:53:26;0.30;;;0.30;;
10418;SDS011;5256;48.728;9.140;2023-06-22T01:55:52;0.10;;;0.10;;
10418;SDS011;5256;48.728;9.140;2023-06-22T01:58:17;0.20;;;0.20;;
10418;SDS011;5256;48.728;9.140;2023-06-22T02:00:51;0.20;;;0.20;;
10418;SDS011;5256;48.728;9.140;2023-06-22T02:03:23;0.20;;;0.20;;
10418;SDS011;5256;48.728;9.140;2023-06-22T02:05:57;0.20;;;0.20;;
10418;SDS011;5256;48.728;9.140;2023-06-22T02:08:28;0.23;;;0.23;;
10418;SDS011;5256;48.728;9.140;2023-06-22T02:11:12;0.30;;;0.30;;
10418;SDS011;5256;48.728;9.140;2023-06-22T02:13:39;0.20;;;0.20;;
10418;SDS011;5256;48.728;9.140;2023-06-22T02:16:08;0.23;;;0.23;;
10418;SDS011;5256;48.728;9.140;2023-06-22T02:18:38;0.20;;;0.20;;
10418;SDS011;5256;48.728;9.140;2023-06-22T02:21:05;0.20;;;0.20;;
10418;SDS011;5256;48.728;9.140;2023-06-22T02:23:30;0.30;;;0.30;;
10418;SDS011;5256;48.728;9.140;2023-06-22T02:25:59;0.20;;;0.20;;
10418;SDS011;5256;48.728;9.140;2023-06-22T02:28:25;0.20;;;0.20;;
10418;SDS011;5256;48.728;9.140;2023-06-22T02:30:51;0.30;;;0.30;;
10418;SDS011;5256;48.728;9.140;2023-06-22T02:33:16;0.30;;;0.30;;
10418;SDS011;5256;48.728;9.140;2023-06-22T02:35:42;0.20;;;0.20;;
10418;SDS011;5256;48.728;9.140;2023-06-22T02:38:10;0.30;;;0.30;;
10418;SDS011;5256;48.728;9.140;2023-06-22T02:40:36;0.20;;;0.20;;
10418;SDS011;5256;48.728;9.140;2023-06-22T02:43:02;0.27;;;0.27;;
10418;SDS011;5256;48.728;9.140;2023-06-22T02:45:28;0.20;;;0.20;;
10418;SDS011;5256;48.728;9.140;2023-06-22T02:47:54;0.20;;;0.20;;
10418;SDS011;5256;48.728;9.140;2023-06-22T02:50:20;0.30;;;0.30;;
10418;SDS011;5256;48.728;9.140;2023-06-22T02:52:46;0.17;;;0.17;;
10418;SDS011;5256;48.728;9.140;2023-06-22T02:55:11;0.20;;;0.20;;
10418;SDS011;5256;48.728;9.140;2023-06-22T02:57:37;0.20;;;0.20;;
10418;SDS011;5256;48.728;9.140;2023-06-22T03:00:03;0.30;;;0.30;;
10418;SDS011;5256;48.728;9.140;2023-06-22T03:02:43;0.20;;;0.20;;
10418;SDS011;5256;48.728;9.140;2023-06-22T03:05:09;0.20;;;0.20;;
10418;SDS011;5256;48.728;9.140;2023-06-22T03:07:38;0.30;;;0.30;;
10418;SDS011;5256;48.728;9.140;2023-06-22T03:10:10;0.20;;;0.20;;
10418;SDS011;5256;48.728;9.140;2023-06-22T03:12:37;0.30;;;0.30;;
10418;SDS011;5256;48.728;9.140;2023-06-22T03:15:04;0.30;;;0.30;;
10418;SDS011;5256;48.728;9.140;2023-06-22T03:17:31;0.20;;;0.20;;
10418;SDS011;5256;48.728;9.140;2023-06-22T03:19:56;0.30;;;0.30;;
10418;SDS011;5256;48.728;9.140;2023-06-22T03:22:22;0.20;;;0.20;;
10418;SDS011;5256;48.728;9.140;2023-06-22T03:24:48;0.20;;;0.20;;
10418;SDS011;5256;48.728;9.140;2023-06-22T03:27:13;0.20;;;0.20;;
10418;SDS011;5256;48.728;9.140;2023-06-22T03:29:39;0.20;;;0.20;;
10418;SDS011;5256;48.728;9.140;2023-06-22T03:32:04;0.20;;;0.20;;
10418;SDS011;5256;48.728;9.140;2023-06-22T03:34:31;0.33;;;0.33;;
10418;SDS011;5256;48.728;9.140;2023-06-22T03:36:58;0.30;;;0.30;;
10418;SDS011;5256;48.728;9.140;2023-06-22T03:39:24;0.20;;;0.20;;
10418;SDS011;5256;48.728;9.140;2023-06-22T03:41:49;0.20;;;0.20;;
10418;SDS011;5256;48.728;9.140;2023-06-22T03:44:15;0.20;;;0.20;;
10418;SDS011;5256;48.728;9.140;2023-06-22T03:46:41;0.30;;;0.30;;
10418;SDS011;5256;48.728;9.140;2023-06-22T03:49:06;0.20;;;0.20;;
10418;SDS011;5256;48.728;9.140;2023-06-22T03:51:32;0.20;;;0.20;;
10418;SDS011;5256;48.728;9.140;2023-06-22T03:53:58;0.20;;;0.20;;
10418;SDS011;5256;48.728;9.140;2023-06-22T03:56:23;0.20;;;0.20;;
10418;SDS011;5256;48.728;9.140;2023-06-22T03:58:49;0.30;;;0.30;;
10418;SDS011;5256;48.728;9.140;2023-06-22T04:01:14;0.20;;;0.20;;
10418;SDS011;5256;48.728;9.140;2023-06-22T04:03:42;0.20;;;0.20;;
10418;SDS011;5256;48.728;9.140;2023-06-22T04:06:07;0.30;;;0.30;;
10418;SDS011;5256;48.728;9.140;2023-06-22T04:08:33;0.30;;;0.30;;
10418;SDS011;5256;48.728;9.140;2023-06-22T04:10:59;0.20;;;0.20;;
10418;SDS011;5256;48.728;9.140;2023-06-22T04:13:24;0.20;;;0.20;;
10418;SDS011;5256;48.728;9.140;2023-06-22T04:15:50;0.20;;;0.20;;
10418;SDS011;5256;48.728;9.140;2023-06-22T04:18:15;0.20;;;0.20;;
10418;SDS011;5256;48.728;9.140;2023-06-22T04:20:41;0.23;;;0.23;;
10418;SDS011;5256;48.728;9.140;2023-06-22T04:23:06;0.20;;;0.20;;
10418;SDS011;5256;48.728;9.140;2023-06-22T04:25:33;0.20;;;0.20;;
10418;SDS011;5256;48.728;9.140;2023-06-22T04:27:59;0.20;;;0.20;;
10418;SDS011;5256;48.728;9.140;2023-06-22T04:30:28;0.20;;;0.20;;
10418;SDS011;5256;48.728;9.140;2023-06-22T04:32:53;0.20;;;0.20;;
10418;SDS011;5256;48.728;9.140;2023-06-22T04:35:22;0.10;;;0.10;;
10418;SDS011;5256;48.728;9.140;2023-06-22T04:37:48;0.30;;;0.30;;
10418;SDS011;5256;48.728;9.140;2023-06-22T04:40:14;0.20;;;0.20;;
10418;SDS011;5256;48.728;9.140;2023-06-22T04:42:40;0.20;;;0.20;;
10418;SDS011;5256;48.728;9.140;2023-06-22T04:45:18;0.20;;;0.20;;
10418;SDS011;5256;48.728;9.140;2023-06-22T04:47:43;0.20;;;0.20;;
10418;SDS011;5256;48.728;9.140;2023-06-22T04:50:10;0.10;;;0.10;;
10418;SDS011;5256;48.728;9.140;2023-06-22T04:52:39;0.20;;;0.20;;
10418;SDS011;5256;48.728;9.140;2023-06-22T04:55:05;0.10;;;0.10;;
10418;SDS011;5256;48.728;9.140;2023-06-22T04:57:31;0.30;;;0.30;;
10418;SDS011;5256;48.728;9.140;2023-06-22T05:00:00;0.20;;;0.20;;
10418;SDS011;5256;48.728;9.140;2023-06-22T05:02:37;0.10;;;0.10;;
10418;SDS011;5256;48.728;9.140;2023-06-22T05:05:04;0.10;;;0.10;;
10418;SDS011;5256;48.728;9.140;2023-06-22T05:07:32;0.20;;;0.20;;
10418;SDS011;5256;48.728;9.140;2023-06-22T05:09:58;0.10;;;0.10;;
10418;SDS011;5256;48.728;9.140;2023-06-22T05:12:24;0.20;;;0.20;;
10418;SDS011;5256;48.728;9.140;2023-06-22T05:14:49;0.10;;;0.10;;
10418;SDS011;5256;48.728;9.140;2023-06-22T05:17:15;0.10;;;0.10;;
10418;SDS011;5256;48.728;9.140;2023-06-22T05:19:44;0.20;;;0.20;;
10418;SDS011;5256;48.728;9.140;2023-06-22T05:22:13;0.10;;;0.10;;
10418;SDS011;5256;48.728;9.140;2023-06-22T05:24:42;0.10;;;0.10;;
10418;SDS011;5256;48.728;9.140;2023-06-22T05:27:08;0.20;;;0.20;;
10418;SDS011;5256;48.728;9.140;2023-06-22T05:29:34;0.10;;;0.10;;
10418;SDS011;5256;48.728;9.140;2023-06-22T05:32:01;0.20;;;0.20;;
10418;SDS011;5256;48.728;9.140;2023-06-22T05:34:26;0.10;;;0.10;;
10418;SDS011;5256;48.728;9.140;2023-06-22T05:36:52;0.10;;;0.10;;
10418;SDS011;5256;48.728;9.140;2023-06-22T05:39:17;0.20;;;0.20;;
10418;SDS011;5256;48.728;9.140;2023-06-22T05:41:44;0.10;;;0.10;;
10418;SDS011;5256;48.728;9.140;2023-06-22T05:44:10;0.10;;;0.10;;
10418;SDS011;5256;48.728;9.140;2023-06-22T05:46:35;0.10;;;0.10;;
10418;SDS011;5256;48.728;9.140;2023-06-22T05:49:01;0.10;;;0.10;;
10418;SDS011;5256;48.728;9.140;2023-06-22T05:51:27;0.20;;;0.20;;
10418;SDS011;5256;48.728;9.140;2023-06-22T05:53:52;0.10;;;0.10;;
10418;SDS011;5256;48.728;9.140;2023-06-22T05:56:18;0.10;;;0.10;;
10418;SDS011;5256;48.728;9.140;2023-06-22T05:58:43;0.20;;;0.20;;
10418;SDS011;5256;48.728;9.140;2023-06-22T06:01:11;0.10;;;0.10;;
10418;SDS011;5256;48.728;9.140;2023-06-22T06:03:36;0.20;;;0.20;;
10418;SDS011;5256;48.728;9.140;2023-06-22T06:06:06;0.13;;;0.13;;
10418;SDS011;5256;48.728;9.140;2023-06-22T06:08:32;0.20;;;0.20;;
10418;SDS011;5256;48.728;9.140;2023-06-22T06:10:58;0.10;;;0.10;;
10418;SDS011;5256;48.728;9.140;2023-06-22T06:13:23;0.20;;;0.20;;
10418;SDS011;5256;48.728;9.140;2023-06-22T06:15:49;0.10;;;0.10;;
10418;SDS011;5256;48.728;9.140;2023-06-22T06:18:20;0.10;;;0.10;;
10418;SDS011;5256;48.728;9.140;2023-06-22T06:20:45;0.20;;;0.20;;
10418;SDS011;5256;48.728;9.140;2023-06-22T06:23:11;0.10;;;0.10;;
10418;SDS011;5256;48.728;9.140;2023-06-22T06:25:37;0.13;;;0.13;;
10418;SDS011;5256;48.728;9.140;2023-06-22T06:28:02;0.13;;;0.13;;
10418;SDS011;5256;48.728;9.140;2023-06-22T06:30:28;0.10;;;0.10;;
10418;SDS011;5256;48.728;9.140;2023-06-22T06:32:54;0.10;;;0.10;;
10418;SDS011;5256;48.728;9.140;2023-06-22T06:35:20;0.10;;;0.10;;
10418;SDS011;5256;48.728;9.140;2023-06-22T06:37:47;0.10;;;0.10;;
10418;SDS011;5256;48.728;9.140;2023-06-22T06:40:14;0.10;;;0.10;;
10418;SDS011;5256;48.728;9.140;2023-06-22T06:42:42;0.10;;;0.10;;
10418;SDS011;5256;48.728;9.140;2023-06-22T06:45:14;0.10;;;0.10;;
10418;SDS011;5256;48.728;9.140;2023-06-22T06:47:41;0.10;;;0.10;;
10418;SDS011;5256;48.728;9.140;2023-06-22T06:50:07;0.20;;;0.20;;
10418;SDS011;5256;48.728;9.140;2023-06-22T06:52:33;0.10;;;0.10;;
10418;SDS011;5256;48.728;9.140;2023-06-22T06:54:59;0.10;;;0.10;;
10418;SDS011;5256;48.728;9.140;2023-06-22T06:57:24;0.10;;;0.10;;
10418;SDS011;5256;48.728;9.140;2023-06-22T06:59:53;0.00;;;0.00;;
10418;SDS011;5256;48.728;9.140;2023-06-22T07:02:21;0.10;;;0.10;;
10418;SDS011;5256;48.728;9.140;2023-06-22T07:04:47;0.10;;;0.10;;
10418;SDS011;5256;48.728;9.140;2023-06-22T07:07:13;0.10;;;0.10;;
10418;SDS011;5256;48.728;9.140;2023-06-22T07:09:39;0.10;;;0.10;;
10418;SDS011;5256;48.728;9.140;2023-06-22T07:12:05;0.10;;;0.10;;
10418;SDS011;5256;48.728;9.140;2023-06-22T07:14:31;0.10;;;0.10;;
10418;SDS011;5256;48.728;9.140;2023-06-22T07:16:57;0.10;;;0.10;;
10418;SDS011;5256;48.728;9.140;2023-06-22T07:19:26;0.10;;;0.10;;
10418;SDS011;5256;48.728;9.140;2023-06-22T07:21:53;0.10;;;0.10;;
10418;SDS011;5256;48.728;9.140;2023-06-22T07:24:22;0.10;;;0.10;;
10418;SDS011;5256;48.728;9.140;2023-06-22T07:26:48;0.20;;;0.20;;
10418;SDS011;5256;48.728;9.140;2023-06-22T07:29:15;0.10;;;0.10;;
10418;SDS011;5256;48.728;9.140;2023-06-22T07:31:44;0.10;;;0.10;;
10418;SDS011;5256;48.728;9.140;2023-06-22T07:34:10;0.10;;;0.10;;
10418;SDS011;5256;48.728;9.140;2023-06-22T07:36:36;0.10;;;0.10;;
10418;SDS011;5256;48.728;9.140;2023-06-22T07:39:02;0.10;;;0.10;;
10418;SDS011;5256;48.728;9.140;2023-06-22T07:41:29;0.10;;;0.10;;
10418;SDS011;5256;48.728;9.140;2023-06-22T07:43:55;0.10;;;0.10;;
10418;SDS011;5256;48.728;9.140;2023-06-22T07:46:20;0.10;;;0.10;;
10418;SDS011;5256;48.728;9.140;2023-06-22T07:48:46;0.10;;;0.10;;
10418;SDS011;5256;48.728;9.140;2023-06-22T07:51:12;0.10;;;0.10;;
10418;SDS011;5256;48.728;9.140;2023-06-22T07:53:38;0.10;;;0.10;;
10418;SDS011;5256;48.728;9.140;2023-06-22T07:56:05;0.10;;;0.10;;
10418;SDS011;5256;48.728;9.140;2023-06-22T07:58:32;0.10;;;0.10;;
10418;SDS011;5256;48.728;9.140;2023-06-22T08:00:58;0.10;;;0.10;;
10418;SDS011;5256;48.728;9.140;2023-06-22T08:03:24;0.10;;;0.10;;
10418;SDS011;5256;48.728;9.140;2023-06-22T08:05:49;0.10;;;0.10;;
10418;SDS011;5256;48.728;9.140;2023-06-22T08:08:15;0.10;;;0.10;;
10418;SDS011;5256;48.728;9.140;2023-06-22T08:10:41;0.10;;;0.10;;
10418;SDS011;5256;48.728;9.140;2023-06-22T08:13:07;0.10;;;0.10;;
10418;SDS011;5256;48.728;9.140;2023-06-22T08:15:33;0.00;;;0.00;;
10418;SDS011;5256;48.728;9.140;2023-06-22T08:17:58;0.10;;;0.10;;
10418;SDS011;5256;48.728;9.140;2023-06-22T08:20:26;0.10;;;0.10;;
10418;SDS011;5256;48.728;9.140;2023-06-22T08:22:52;0.10;;;0.10;;
10418;SDS011;5256;48.728;9.140;2023-06-22T08:25:19;0.10;;;0.10;;
10418;SDS011;5256;48.728;9.140;2023-06-22T08:27:46;0.10;;;0.10;;
10418;SDS011;5256;48.728;9.140;2023-06-22T08:30:12;0.10;;;0.10;;
10418;SDS011;5256;48.728;9.140;2023-06-22T08:32:38;0.10;;;0.10;;
10418;SDS011;5256;48.728;9.140;2023-06-22T08:35:04;0.10;;;0.10;;
10418;SDS011;5256;48.728;9.140;2023-06-22T08:37:31;0.10;;;0.10;;
10418;SDS011;5256;48.728;9.140;2023-06-22T08:40:00;0.10;;;0.10;;
10418;SDS011;5256;48.728;9.140;2023-06-22T08:42:30;0.10;;;0.10;;
10418;SDS011;5256;48.728;9.140;2023-06-22T08:44:56;0.10;;;0.10;;
10418;SDS011;5256;48.728;9.140;2023-06-22T08:47:22;0.10;;;0.10;;
10418;SDS011;5256;48.728;9.140;2023-06-22T08:49:48;0.10;;;0.10;;
10418;SDS011;5256;48.728;9.140;2023-06-22T08:52:14;0.10;;;0.10;;
10418;SDS011;5256;48.728;9.140;2023-06-22T08:54:39;0.10;;;0.10;;
10418;SDS011;5256;48.728;9.140;2023-06-22T08:57:05;0.10;;;0.10;;
10418;SDS011;5256;48.728;9.140;2023-06-22T08:59:31;0.10;;;0.10;;
10418;SDS011;5256;48.728;9.140;2023-06-22T09:01:57;0.10;;;0.10;;
10418;SDS011;5256;48.728;9.140;2023-06-22T09:04:23;0.10;;;0.10;;
10418;SDS011;5256;48.728;9.140;2023-06-22T09:06:49;0.17;;;0.17;;
10418;SDS011;5256;48.728;9.140;2023-06-22T09:09:15;0.10;;;0.10;;
10418;SDS011;5256;48.728;9.140;2023-06-22T09:11:41;0.10;;;0.10;;
10418;SDS011;5256;48.728;9.140;2023-06-22T09:14:07;0.10;;;0.10;;
10418;SDS011;5256;48.728;9.140;2023-06-22T09:16:34;0.10;;;0.10;;
10418;SDS011;5256;48.728;9.140;2023-06-22T09:18:59;0.10;;;0.10;;
10418;SDS011;5256;48.728;9.140;2023-06-22T09:21:25;0.10;;;0.10;;
10418;SDS011;5256;48.728;9.140;2023-06-22T09:23:51;0.10;;;0.10;;
10418;SDS011;5256;48.728;9.140;2023-06-22T09:26:20;0.10;;;0.10;;
10418;SDS011;5256;48.728;9.140;2023-06-22T09:28:47;0.10;;;0.10;;
10418;SDS011;5256;48.728;9.140;2023-06-22T09:31:13;0.10;;;0.10;;
10418;SDS011;5256;48.728;9.140;2023-06-22T09:33:39;0.10;;;0.10;;
10418;SDS011;5256;48.728;9.140;2023-06-22T09:36:06;0.10;;;0.10;;
10418;SDS011;5256;48.728;9.140;2023-06-22T09:38:35;0.10;;;0.10;;
10418;SDS011;5256;48.728;9.140;2023-06-22T09:41:01;0.10;;;0.10;;
10418;SDS011;5256;48.728;9.140;2023-06-22T09:43:27;0.10;;;0.10;;
10418;SDS011;5256;48.728;9.140;2023-06-22T09:45:52;0.10;;;0.10;;
10418;SDS011;5256;48.728;9.140;2023-06-22T09:48:18;0.10;;;0.10;;
10418;SDS011;5256;48.728;9.140;2023-06-22T09:50:43;0.00;;;0.00;;
10418;SDS011;5256;48.728;9.140;2023-06-22T09:53:09;0.10;;;0.10;;
10418;SDS011;5256;48.728;9.140;2023-06-22T09:55:34;0.10;;;0.10;;
10418;SDS011;5256;48.728;9.140;2023-06-22T09:58:00;0.10;;;0.10;;
10418;SDS011;5256;48.728;9.140;2023-06-22T10:00:26;0.10;;;0.10;;
10418;SDS011;5256;48.728;9.140;2023-06-22T10:02:51;0.10;;;0.10;;
10418;SDS011;5256;48.728;9.140;2023-06-22T10:05:17;0.10;;;0.10;;
10418;SDS011;5256;48.728;9.140;2023-06-22T10:07:43;0.10;;;0.10;;
10418;SDS011;5256;48.728;9.140;2023-06-22T10:10:09;0.10;;;0.10;;
10418;SDS011;5256;48.728;9.140;2023-06-22T10:12:35;0.10;;;0.10;;
10418;SDS011;5256;48.728;9.140;2023-06-22T10:15:01;0.10;;;0.10;;
10418;SDS011;5256;48.728;9.140;2023-06-22T10:17:27;0.10;;;0.10;;
10418;SDS011;5256;48.728;9.140;2023-06-22T10:19:53;0.10;;;0.10;;
10418;SDS011;5256;48.728;9.140;2023-06-22T10:22:18;0.10;;;0.10;;
10418;SDS011;5256;48.728;9.140;2023-06-22T10:24:44;0.10;;;0.10;;
10418;SDS011;5256;48.728;9.140;2023-06-22T10:27:10;0.10;;;0.10;;
10418;SDS011;5256;48.728;9.140;2023-06-22T10:29:37;0.10;;;0.10;;
10418;SDS011;5256;48.728;9.140;2023-06-22T10:32:02;0.10;;;0.10;;
10418;SDS011;5256;48.728;9.140;2023-06-22T10:34:28;0.10;;;0.10;;
10418;SDS011;5256;48.728;9.140;2023-06-22T10:36:54;0.10;;;0.10;;
10418;SDS011;5256;48.728;9.140;2023-06-22T10:39:19;0.00;;;0.00;;
10418;SDS011;5256;48.728;9.140;2023-06-22T10:41:45;0.00;;;0.00;;
10418;SDS011;5256;48.728;9.140;2023-06-22T10:44:10;0.10;;;0.10;;
10418;SDS011;5256;48.728;9.140;2023-06-22T10:46:37;0.10;;;0.10;;
10418;SDS011;5256;48.728;9.140;2023-06-22T10:49:02;0.10;;;0.10;;
10418;SDS011;5256;48.728;9.140;2023-06-22T10:51:28;0.10;;;0.10;;
10418;SDS011;5256;48.728;9.140;2023-06-22T10:53:54;0.10;;;0.10;;
10418;SDS011;5256;48.728;9.140;2023-06-22T10:56:19;0.00;;;0.00;;
10418;SDS011;5256;48.728;9.140;2023-06-22T10:58:45;0.10;;;0.10;;
10418;SDS011;5256;48.728;9.140;2023-06-22T11:01:11;0.10;;;0.10;;
10418;SDS011;5256;48.728;9.140;2023-06-22T11:03:36;0.10;;;0.10;;
10418;SDS011;5256;48.728;9.140;2023-06-22T11:06:02;0.10;;;0.10;;
10418;SDS011;5256;48.728;9.140;2023-06-22T11:08:28;0.07;;;0.07;;
10418;SDS011;5256;48.728;9.140;2023-06-22T11:10:53;0.00;;;0.00;;
10418;SDS011;5256;48.728;9.140;2023-06-22T11:13:19;0.10;;;0.10;;
10418;SDS011;5256;48.728;9.140;2023-06-22T11:15:44;0.10;;;0.10;;
10418;SDS011;5256;48.728;9.140;2023-06-22T11:18:10;0.10;;;0.10;;
10418;SDS011;5256;48.728;9.140;2023-06-22T11:20:36;0.10;;;0.10;;
10418;SDS011;5256;48.728;9.140;2023-06-22T11:23:06;0.10;;;0.10;;
10418;SDS011;5256;48.728;9.140;2023-06-22T11:25:32;0.10;;;0.10;;
10418;SDS011;5256;48.728;9.140;2023-06-22T11:28:01;0.00;;;0.00;;
10418;SDS011;5256;48.728;9.140;2023-06-22T11:30:29;0.10;;;0.10;;
10418;SDS011;5256;48.728;9.140;2023-06-22T11:32:58;0.10;;;0.10;;
10418;SDS011;5256;48.728;9.140;2023-06-22T11:35:24;0.10;;;0.10;;
10418;SDS011;5256;48.728;9.140;2023-06-22T11:37:49;0.10;;;0.10;;
10418;SDS011;5256;48.728;9.140;2023-06-22T11:40:15;0.00;;;0.00;;
10418;SDS011;5256;48.728;9.140;2023-06-22T11:42:42;0.10;;;0.10;;
10418;SDS011;5256;48.728;9.140;2023-06-22T11:45:08;0.10;;;0.10;;
10418;SDS011;5256;48.728;9.140;2023-06-22T11:47:34;0.10;;;0.10;;
10418;SDS011;5256;48.728;9.140;2023-06-22T11:49:59;0.10;;;0.10;;
10418;SDS011;5256;48.728;9.140;2023-06-22T11:52:25;0.10;;;0.10;;
10418;SDS011;5256;48.728;9.140;2023-06-22T11:54:52;0.10;;;0.10;;
10418;SDS011;5256;48.728;9.140;2023-06-22T11:57:17;0.03;;;0.03;;
10418;SDS011;5256;48.728;9.140;2023-06-22T11:59:43;0.00;;;0.00;;
10418;SDS011;5256;48.728;9.140;2023-06-22T12:02:08;0.10;;;0.10;;
10418;SDS011;5256;48.728;9.140;2023-06-22T12:04:34;0.10;;;0.10;;
10418;SDS011;5256;48.728;9.140;2023-06-22T12:07:00;0.10;;;0.10;;
10418;SDS011;5256;48.728;9.140;2023-06-22T12:09:25;0.03;;;0.03;;
10418;SDS011;5256;48.728;9.140;2023-06-22T12:11:51;0.00;;;0.00;;
10418;SDS011;5256;48.728;9.140;2023-06-22T12:14:16;0.10;;;0.10;;
10418;SDS011;5256;48.728;9.140;2023-06-22T12:16:42;0.10;;;0.10;;
10418;SDS011;5256;48.728;9.140;2023-06-22T12:19:09;0.10;;;0.10;;
10418;SDS011;5256;48.728;9.140;2023-06-22T12:21:36;0.10;;;0.10;;
10418;SDS011;5256;48.728;9.140;2023-06-22T12:24:02;0.10;;;0.10;;
10418;SDS011;5256;48.728;9.140;2023-06-22T12:26:28;0.10;;;0.10;;
10418;SDS011;5256;48.728;9.140;2023-06-22T12:28:53;0.10;;;0.10;;
10418;SDS011;5256;48.728;9.140;2023-06-22T12:31:19;0.10;;;0.10;;
10418;SDS011;5256;48.728;9.140;2023-06-22T12:33:45;0.10;;;0.10;;
10418;SDS011;5256;48.728;9.140;2023-06-22T12:36:10;0.10;;;0.10;;
10418;SDS011;5256;48.728;9.140;2023-06-22T12:38:36;0.00;;;0.00;;
10418;SDS011;5256;48.728;9.140;2023-06-22T12:41:01;0.10;;;0.10;;
10418;SDS011;5256;48.728;9.140;2023-06-22T12:43:27;0.10;;;0.10;;
10418;SDS011;5256;48.728;9.140;2023-06-22T12:45:53;0.10;;;0.10;;
10418;SDS011;5256;48.728;9.140;2023-06-22T12:48:18;0.10;;;0.10;;
10418;SDS011;5256;48.728;9.140;2023-06-22T12:50:44;0.10;;;0.10;;
10418;SDS011;5256;48.728;9.140;2023-06-22T12:53:10;0.10;;;0.10;;
10418;SDS011;5256;48.728;9.140;2023-06-22T12:55:35;0.10;;;0.10;;
10418;SDS011;5256;48.728;9.140;2023-06-22T12:58:01;0.10;;;0.10;;
10418;SDS011;5256;48.728;9.140;2023-06-22T13:00:27;0.10;;;0.10;;
10418;SDS011;5256;48.728;9.140;2023-06-22T13:02:52;0.10;;;0.10;;
10418;SDS011;5256;48.728;9.140;2023-06-22T13:05:18;0.10;;;0.10;;
10418;SDS011;5256;48.728;9.140;2023-06-22T13:07:44;0.10;;;0.10;;
10418;SDS011;5256;48.728;9.140;2023-06-22T13:10:10;0.00;;;0.00;;
10418;SDS011;5256;48.728;9.140;2023-06-22T13:12:36;0.10;;;0.10;;
10418;SDS011;5256;48.728;9.140;2023-06-22T13:15:01;0.00;;;0.00;;
10418;SDS011;5256;48.728;9.140;2023-06-22T13:17:28;0.10;;;0.10;;
10418;SDS011;5256;48.728;9.140;2023-06-22T13:19:53;0.10;;;0.10;;
10418;SDS011;5256;48.728;9.140;2023-06-22T13:24:58;0.07;;;0.07;;
10418;SDS011;5256;48.728;9.140;2023-06-22T13:27:24;0.10;;;0.10;;
10418;SDS011;5256;48.728;9.140;2023-06-22T13:29:50;0.00;;;0.00;;
10418;SDS011;5256;48.728;9.140;2023-06-22T13:32:16;0.10;;;0.10;;
10418;SDS011;5256;48.728;9.140;2023-06-22T13:34:42;0.10;;;0.10;;
10418;SDS011;5256;48.728;9.140;2023-06-22T13:37:08;0.10;;;0.10;;
10418;SDS011;5256;48.728;9.140;2023-06-22T13:39:33;0.10;;;0.10;;
10418;SDS011;5256;48.728;9.140;2023-06-22T13:41:59;0.10;;;0.10;;
10418;SDS011;5256;48.728;9.140;2023-06-22T13:44:24;0.00;;;0.00;;
10418;SDS011;5256;48.728;9.140;2023-06-22T13:46:53;0.10;;;0.10;;
10418;SDS011;5256;48.728;9.140;2023-06-22T13:49:22;0.10;;;0.10;;
10418;SDS011;5256;48.728;9.140;2023-06-22T13:51:47;0.07;;;0.07;;
10418;SDS011;5256;48.728;9.140;2023-06-22T13:54:13;0.10;;;0.10;;
10418;SDS011;5256;48.728;9.140;2023-06-22T13:56:39;0.10;;;0.10;;
10418;SDS011;5256;48.728;9.140;2023-06-22T13:59:05;0.10;;;0.10;;
10418;SDS011;5256;48.728;9.140;2023-06-22T14:01:34;0.10;;;0.10;;
10418;SDS011;5256;48.728;9.140;2023-06-22T14:03:59;0.10;;;0.10;;
10418;SDS011;5256;48.728;9.140;2023-06-22T14:06:26;0.10;;;0.10;;
10418;SDS011;5256;48.728;9.140;2023-06-22T14:08:52;0.10;;;0.10;;
10418;SDS011;5256;48.728;9.140;2023-06-22T14:11:17;0.10;;;0.10;;
10418;SDS011;5256;48.728;9.140;2023-06-22T14:13:43;0.00;;;0.00;;
10418;SDS011;5256;48.728;9.140;2023-06-22T14:16:09;0.10;;;0.10;;
10418;SDS011;5256;48.728;9.140;2023-06-22T14:18:34;0.10;;;0.10;;
10418;SDS011;5256;48.728;9.140;2023-06-22T14:21:00;0.00;;;0.00;;
10418;SDS011;5256;48.728;9.140;2023-06-22T14:23:26;0.10;;;0.10;;
10418;SDS011;5256;48.728;9.140;2023-06-22T14:25:52;0.10;;;0.10;;
10418;SDS011;5256;48.728;9.140;2023-06-22T14:28:18;0.00;;;0.00;;
10418;SDS011;5256;48.728;9.140;2023-06-22T14:30:43;0.10;;;0.10;;
10418;SDS011;5256;48.728;9.140;2023-06-22T14:33:09;0.10;;;0.10;;
10418;SDS011;5256;48.728;9.140;2023-06-22T14:35:34;0.10;;;0.10;;
10418;SDS011;5256;48.728;9.140;2023-06-22T14:38:00;0.10;;;0.10;;
10418;SDS011;5256;48.728;9.140;2023-06-22T14:40:26;0.10;;;0.10;;
10418;SDS011;5256;48.728;9.140;2023-06-22T14:42:51;0.00;;;0.00;;
10418;SDS011;5256;48.728;9.140;2023-06-22T14:45:17;0.00;;;0.00;;
10418;SDS011;5256;48.728;9.140;2023-06-22T14:47:42;0.10;;;0.10;;
10418;SDS011;5256;48.728;9.140;2023-06-22T14:50:08;0.10;;;0.10;;
10418;SDS011;5256;48.728;9.140;2023-06-22T14:52:33;0.10;;;0.10;;
10418;SDS011;5256;48.728;9.140;2023-06-22T14:54:59;0.10;;;0.10;;
10418;SDS011;5256;48.728;9.140;2023-06-22T14:57:25;0.10;;;0.10;;
10418;SDS011;5256;48.728;9.140;2023-06-22T14:59:50;0.10;;;0.10;;
10418;SDS011;5256;48.728;9.140;2023-06-22T15:02:16;0.10;;;0.10;;
10418;SDS011;5256;48.728;9.140;2023-06-22T15:04:42;0.00;;;0.00;;